Impacts TAF Board
For situational awareness. Not to be used for flight planning purposes.
IDs:

KEET - Alabaster/Shelby Cnt, AL, US

Issued at 2206 UTC 30 Jun 2022
Updated at 2257 UTC 30 Jun 2022
Potential Impact None Slight Moderate High
Time2253Z 30/23Z 01/00Z 01/01Z 01/02Z 01/03Z 01/04Z 01/05Z 01/06Z 01/07Z 01/08Z 01/09Z 01/10Z 01/11Z>>
Type OBS PRVL PRVL PRVL PRVL PRVL PRVL PRVL PRVL PRVL PRVL PRVL PRVL PRVL
VIS 10 >6 >6 >6 >6 >6 >6 >6 >6 >6 >6 >6 >6 >6
CIG -- 250 250 250 250 250 250 250 250 250 250 250 250 250
Cover CLR BKN BKN BKN BKN BKN BKN BKN BKN BKN BKN BKN BKN BKN
FltCat VFR VFR VFR VFR VFR VFR VFR VFR VFR VFR VFR VFR VFR VFR
WX -- -- -- -- -- -- -- -- -- -- -- -- -- --
WDir 130 140 140 140 140 VRB VRB VRB VRB VRB VRB VRB VRB VRB
WSpd 3 6 6 6 6 3 3 3 3 3 3 3 3 3
WGst -- -- -- -- -- -- -- -- -- -- -- -- -- --
WSHgt -- -- -- -- -- -- -- -- -- -- -- -- -- --
WSDir -- -- -- -- -- -- -- -- -- -- -- -- -- --
WSSpd -- -- -- -- -- -- -- -- -- -- -- -- -- --
Raw TAF
KEET 302206Z 3022/0118 14006KT P6SM BKN250
  FM010300 VRB03KT P6SM SCT050 BKN250
  FM011500 17005KT P6SM BKN030


Raw METAR
KEET 302253Z AUTO 13003KT 10SM CLR 28/21 A3010 RMK AO2 SLP185 T02830211
KEET 302153Z AUTO 13005KT 10SM CLR 29/22 A3011 RMK AO2 SLP189 T02890217
KEET 302053Z AUTO 13006KT 10SM CLR 29/21 A3010 RMK AO2 SLP186 T02940206 56024
KEET 301953Z AUTO 08006KT 10SM FEW030 29/22 A3012 RMK AO2 SLP192 T02940217

METAR Board
Radar Display
Forecast Discussion
For situational awareness. Not to be used for flight planning purposes.